createdAt,value
2019-05-14T00:00:36.653Z,1029.17
2019-05-14T00:01:36.731Z,1029.19
2019-05-14T00:02:36.575Z,1029.20
2019-05-14T00:03:37.647Z,1029.18
2019-05-14T00:04:36.519Z,1029.14
2019-05-14T00:05:36.532Z,1029.18
2019-05-14T00:06:36.466Z,1029.17
2019-05-14T00:07:36.447Z,1029.20
2019-05-14T00:08:36.391Z,1029.16
2019-05-14T00:09:37.483Z,1029.17
2019-05-14T00:10:36.358Z,1029.17
2019-05-14T00:11:45.093Z,1029.15
2019-05-14T00:12:36.271Z,1029.20
2019-05-14T00:13:36.319Z,1029.23
2019-05-14T00:14:40.064Z,1029.18
2019-05-14T00:15:36.266Z,1029.19
2019-05-14T00:16:36.181Z,1029.16
2019-05-14T00:17:36.207Z,1029.17
2019-05-14T00:18:36.118Z,1029.19
2019-05-14T00:19:36.123Z,1029.16
2019-05-14T00:20:36.070Z,1029.15
2019-05-14T00:21:36.136Z,1029.15
2019-05-14T00:22:36.044Z,1029.18
2019-05-14T00:23:36.051Z,1029.19
2019-05-14T00:24:35.957Z,1029.09
2019-05-14T00:25:37.048Z,1029.07
2019-05-14T00:26:35.884Z,1029.14
2019-05-14T00:27:35.901Z,1029.11
2019-05-14T00:28:35.828Z,1029.12
2019-05-14T00:29:35.783Z,1029.13
2019-05-14T00:30:36.889Z,1029.13
2019-05-14T00:31:35.729Z,1029.11
2019-05-14T00:32:37.852Z,1029.13
2019-05-14T00:33:35.664Z,1029.18
2019-05-14T00:34:35.669Z,1029.14
2019-05-14T00:35:35.872Z,1029.11
2019-05-14T00:36:43.596Z,1029.09
2019-05-14T00:37:35.552Z,1029.09
2019-05-14T00:38:36.598Z,1029.06
2019-05-14T00:39:35.481Z,1029.12
2019-05-14T00:40:35.518Z,1029.12
2019-05-14T00:41:35.429Z,1029.09
2019-05-14T00:42:35.411Z,1029.11
2019-05-14T00:43:35.424Z,1029.10
2019-05-14T00:44:35.355Z,1029.12
2019-05-14T00:45:35.334Z,1029.11
2019-05-14T00:46:35.292Z,1029.10
2019-05-14T00:47:35.271Z,1029.12
2019-05-14T00:48:35.219Z,1029.11
2019-05-14T00:49:35.230Z,1029.17
2019-05-14T00:50:42.173Z,1029.13
2019-05-14T00:51:35.146Z,1029.11
2019-05-14T00:52:35.138Z,1029.14
2019-05-14T00:53:35.086Z,1029.16
2019-05-14T00:54:35.041Z,1029.13
2019-05-14T00:55:35.065Z,1029.16
2019-05-14T00:56:35.008Z,1029.15
2019-05-14T00:57:36.017Z,1029.16
2019-05-14T00:58:34.946Z,1029.14
2019-05-14T00:59:35.999Z,1029.17
2019-05-14T01:00:34.878Z,1029.09
2019-05-14T01:01:34.881Z,1029.15
2019-05-14T01:02:34.826Z,1029.09
2019-05-14T01:03:35.841Z,1029.09
2019-05-14T01:04:34.770Z,1029.08
2019-05-14T01:05:34.894Z,1029.07
2019-05-14T01:06:34.693Z,1029.02
2019-05-14T01:07:34.760Z,1029.06
2019-05-14T01:08:34.679Z,1029.05
2019-05-14T01:09:34.624Z,1029.00
2019-05-14T01:10:41.879Z,1028.97
2019-05-14T01:11:34.552Z,1028.96
2019-05-14T01:12:35.606Z,1028.94
2019-05-14T01:13:34.514Z,1028.94
2019-05-14T01:14:34.517Z,1028.93
2019-05-14T01:15:34.423Z,1028.91
2019-05-14T01:16:34.529Z,1028.89
2019-05-14T01:17:34.376Z,1028.88
2019-05-14T01:18:34.448Z,1028.87
2019-05-14T01:19:34.312Z,1028.88
2019-05-14T01:20:34.362Z,1028.85
2019-05-14T01:21:34.277Z,1028.87
2019-05-14T01:22:34.251Z,1028.84
2019-05-14T01:23:34.205Z,1028.87
2019-05-14T01:24:34.267Z,1028.91
2019-05-14T01:25:34.142Z,1028.86
2019-05-14T01:26:35.166Z,1028.89
2019-05-14T01:27:34.174Z,1028.83
2019-05-14T01:28:36.129Z,1028.87
2019-05-14T01:29:34.041Z,1028.85
2019-05-14T01:30:34.111Z,1028.89
2019-05-14T01:31:33.959Z,1028.81
2019-05-14T01:32:34.030Z,1028.81
2019-05-14T01:33:33.898Z,1028.77
2019-05-14T01:34:33.926Z,1028.79
2019-05-14T01:35:33.853Z,1028.81
2019-05-14T01:36:33.941Z,1028.74
2019-05-14T01:37:33.778Z,1028.77
2019-05-14T01:38:33.940Z,1028.71
2019-05-14T01:39:33.715Z,1028.73
2019-05-14T01:40:33.772Z,1028.68
2019-05-14T01:41:33.664Z,1028.61
2019-05-14T01:42:33.696Z,1028.63
2019-05-14T01:43:33.588Z,1028.61
2019-05-14T01:44:33.697Z,1028.55
2019-05-14T01:45:33.533Z,1028.58
2019-05-14T01:46:34.608Z,1028.52
2019-05-14T01:47:33.521Z,1028.52
2019-05-14T01:48:33.588Z,1028.50
2019-05-14T01:49:33.438Z,1028.44
2019-05-14T01:50:33.395Z,1028.42
2019-05-14T01:51:33.367Z,1028.43
2019-05-14T01:52:33.335Z,1028.39
2019-05-14T01:53:33.312Z,1028.33
2019-05-14T01:54:33.280Z,1028.35
2019-05-14T01:55:33.255Z,1028.40
2019-05-14T01:56:33.242Z,1028.36
2019-05-14T01:57:33.273Z,1028.36
2019-05-14T01:58:33.157Z,1028.34
2019-05-14T01:59:33.177Z,1028.34
2019-05-14T02:00:33.105Z,1028.34
2019-05-14T02:01:33.108Z,1028.42
2019-05-14T02:02:33.068Z,1028.38
2019-05-14T02:03:33.100Z,1028.39
2019-05-14T02:04:33.021Z,1028.41
2019-05-14T02:05:33.016Z,1028.40
2019-05-14T02:06:32.918Z,1028.39
2019-05-14T02:07:32.946Z,1028.44
2019-05-14T02:08:32.878Z,1028.39
2019-05-14T02:09:32.960Z,1028.35
2019-05-14T02:10:32.811Z,1028.36
2019-05-14T02:11:32.857Z,1028.36
2019-05-14T02:12:32.741Z,1028.38
2019-05-14T02:13:32.787Z,1028.36
2019-05-14T02:14:32.687Z,1028.43
2019-05-14T02:15:39.042Z,1028.40
2019-05-14T02:16:32.643Z,1028.41
2019-05-14T02:17:32.690Z,1028.45
2019-05-14T02:18:32.564Z,1028.36
2019-05-14T02:19:32.591Z,1028.37
2019-05-14T02:20:32.505Z,1028.34
2019-05-14T02:21:32.536Z,1028.33
2019-05-14T02:22:32.454Z,1028.31
2019-05-14T02:23:32.532Z,1028.30
2019-05-14T02:24:32.425Z,1028.26
2019-05-14T02:25:32.432Z,1028.32
2019-05-14T02:26:32.348Z,1028.33
2019-05-14T02:27:34.858Z,1028.36
2019-05-14T02:28:32.267Z,1028.32
2019-05-14T02:29:32.348Z,1028.31
2019-05-14T02:30:47.014Z,1028.30
2019-05-14T02:31:32.193Z,1028.29
2019-05-14T02:32:32.151Z,1028.30
2019-05-14T02:33:32.122Z,1028.31
2019-05-14T02:34:32.111Z,1028.32
2019-05-14T02:35:32.061Z,1028.30
2019-05-14T02:36:32.027Z,1028.31
2019-05-14T02:37:32.012Z,1028.31
2019-05-14T02:38:31.969Z,1028.32
2019-05-14T02:39:31.969Z,1028.31
2019-05-14T02:40:31.922Z,1028.35
2019-05-14T02:41:31.897Z,1028.38
2019-05-14T02:42:31.856Z,1028.35
2019-05-14T02:43:31.821Z,1028.32
2019-05-14T02:44:31.779Z,1028.35
2019-05-14T02:45:31.769Z,1028.38
2019-05-14T02:46:31.726Z,1028.37
2019-05-14T02:47:31.715Z,1028.40
2019-05-14T02:48:31.673Z,1028.41
2019-05-14T02:49:31.667Z,1028.36
2019-05-14T02:50:31.596Z,1028.37
2019-05-14T02:51:31.577Z,1028.37
2019-05-14T02:52:31.546Z,1028.45
2019-05-14T02:53:31.542Z,1028.41
2019-05-14T02:54:31.495Z,1028.40
2019-05-14T02:55:31.463Z,1028.45
2019-05-14T02:56:31.434Z,1028.40
2019-05-14T02:57:31.475Z,1028.44
2019-05-14T02:58:31.373Z,1028.40
2019-05-14T02:59:31.339Z,1028.42
2019-05-14T03:00:31.316Z,1028.39
2019-05-14T03:01:31.289Z,1028.42
2019-05-14T03:02:31.246Z,1028.45
2019-05-14T03:03:31.215Z,1028.43
2019-05-14T03:04:31.214Z,1028.43
2019-05-14T03:05:31.163Z,1028.44
2019-05-14T03:06:31.120Z,1028.42
2019-05-14T03:07:31.104Z,1028.39
2019-05-14T03:08:31.090Z,1028.37
2019-05-14T03:09:31.058Z,1028.38
2019-05-14T03:10:31.002Z,1028.32
2019-05-14T03:11:31.012Z,1028.34
2019-05-14T03:12:30.953Z,1028.36
2019-05-14T03:13:30.974Z,1028.36
2019-05-14T03:14:30.887Z,1028.31
2019-05-14T03:15:30.857Z,1028.28
2019-05-14T03:16:35.392Z,1028.28
2019-05-14T03:17:30.801Z,1028.33
2019-05-14T03:18:30.764Z,1028.29
2019-05-14T03:19:30.735Z,1028.32
2019-05-14T03:20:30.735Z,1028.29
2019-05-14T03:21:30.796Z,1028.29
2019-05-14T03:22:43.453Z,1028.27
2019-05-14T03:23:30.700Z,1028.28
2019-05-14T03:24:30.614Z,1028.29
2019-05-14T03:25:30.596Z,1028.25
2019-05-14T03:26:30.534Z,1028.26
2019-05-14T03:27:31.542Z,1028.28
2019-05-14T03:28:30.792Z,1028.28
2019-05-14T03:29:31.108Z,1028.29
2019-05-14T03:30:32.234Z,1028.26
2019-05-14T03:31:33.071Z,1028.29
2019-05-14T03:32:32.948Z,1028.25
2019-05-14T03:33:33.168Z,1028.23
2019-05-14T03:34:33.075Z,1028.27
2019-05-14T03:35:41.319Z,1028.26
2019-05-14T03:36:34.862Z,1028.21
2019-05-14T03:37:31.146Z,1028.23
2019-05-14T03:38:30.163Z,1028.19
2019-05-14T03:39:30.207Z,1028.20
2019-05-14T03:40:30.113Z,1028.26
2019-05-14T03:41:30.753Z,1028.22
2019-05-14T03:42:30.036Z,1028.21
2019-05-14T03:43:30.119Z,1028.23
2019-05-14T03:44:29.980Z,1028.19
2019-05-14T03:45:30.351Z,1028.20
2019-05-14T03:46:44.242Z,1028.22
2019-05-14T03:47:30.044Z,1028.18
2019-05-14T03:48:30.028Z,1028.15
2019-05-14T03:49:29.850Z,1028.17
2019-05-14T03:50:30.031Z,1028.18
2019-05-14T03:51:30.081Z,1028.18
2019-05-14T03:52:29.761Z,1028.20
2019-05-14T03:53:30.035Z,1028.22
2019-05-14T03:54:30.086Z,1028.22
2019-05-14T03:55:29.680Z,1028.20
2019-05-14T03:56:30.049Z,1028.19
2019-05-14T03:57:29.610Z,1028.14
2019-05-14T03:58:30.374Z,1028.19
2019-05-14T03:59:29.632Z,1028.19
2019-05-14T04:00:29.505Z,1028.19
2019-05-14T04:01:29.944Z,1028.18
2019-05-14T04:02:29.801Z,1028.19
2019-05-14T04:03:29.707Z,1028.23
2019-05-14T04:04:30.131Z,1028.18
2019-05-14T04:05:29.559Z,1028.20
2019-05-14T04:06:30.234Z,1028.19
2019-05-14T04:07:30.314Z,1028.20
2019-05-14T04:08:29.515Z,1028.13
2019-05-14T04:09:29.463Z,1028.13
2019-05-14T04:10:30.097Z,1028.12
2019-05-14T04:11:29.547Z,1028.09
2019-05-14T04:12:29.539Z,1028.06
2019-05-14T04:13:30.299Z,1028.07
2019-05-14T04:14:29.325Z,1028.05
2019-05-14T04:15:29.851Z,1028.08
2019-05-14T04:16:29.345Z,1028.04
2019-05-14T04:17:37.127Z,1028.07
2019-05-14T04:18:29.282Z,1028.02
2019-05-14T04:19:29.678Z,1028.01
2019-05-14T04:20:29.761Z,1027.99
2019-05-14T04:21:29.729Z,1027.96
2019-05-14T04:22:29.910Z,1028.05
2019-05-14T04:23:29.202Z,1027.99
2019-05-14T04:24:29.619Z,1027.99
2019-05-14T04:25:29.651Z,1027.95
2019-05-14T04:26:30.233Z,1027.93
2019-05-14T04:27:30.149Z,1027.98
2019-05-14T04:28:29.836Z,1027.96
2019-05-14T04:29:30.687Z,1027.95
2019-05-14T04:30:29.147Z,1027.97
2019-05-14T04:31:29.910Z,1027.94
2019-05-14T04:32:29.254Z,1027.93
2019-05-14T04:33:30.399Z,1027.94
2019-05-14T04:34:30.035Z,1027.92
2019-05-14T04:35:35.158Z,1027.95
2019-05-14T04:36:30.023Z,1027.96
2019-05-14T04:37:29.086Z,1027.93
2019-05-14T04:38:29.928Z,1027.91
2019-05-14T04:39:30.786Z,1027.90
2019-05-14T04:40:29.670Z,1027.84
2019-05-14T04:41:29.900Z,1027.89
2019-05-14T04:42:29.538Z,1027.89
2019-05-14T04:43:29.414Z,1027.87
2019-05-14T04:44:29.696Z,1027.90
2019-05-14T04:45:29.795Z,1027.94
2019-05-14T04:46:30.250Z,1027.90
2019-05-14T04:47:35.922Z,1027.94
2019-05-14T04:48:36.424Z,1027.92
2019-05-14T04:49:29.060Z,1027.95
2019-05-14T04:50:29.706Z,1027.93
2019-05-14T04:51:30.205Z,1027.93
2019-05-14T04:52:29.306Z,1027.96
2019-05-14T04:53:30.868Z,1027.92
2019-05-14T04:54:30.185Z,1027.99
2019-05-14T04:55:29.685Z,1028.00
2019-05-14T04:56:30.187Z,1027.96
2019-05-14T04:57:29.968Z,1027.97
2019-05-14T04:58:34.636Z,1027.96
2019-05-14T04:59:29.896Z,1028.01
2019-05-14T05:00:30.490Z,1027.98
2019-05-14T05:01:29.484Z,1027.98
2019-05-14T05:02:30.143Z,1027.96
2019-05-14T05:03:31.390Z,1027.96
2019-05-14T05:04:29.897Z,1027.94
2019-05-14T05:05:29.909Z,1027.97
2019-05-14T05:06:35.187Z,1027.93
2019-05-14T05:07:29.815Z,1027.92
2019-05-14T05:08:35.095Z,1027.91
2019-05-14T05:09:29.338Z,1027.90
2019-05-14T05:10:29.779Z,1027.93
2019-05-14T05:11:29.111Z,1027.91
2019-05-14T05:12:29.581Z,1027.95
2019-05-14T05:13:29.133Z,1027.96
2019-05-14T05:14:29.687Z,1027.98
2019-05-14T05:15:29.037Z,1028.01
2019-05-14T05:16:29.564Z,1028.04
2019-05-14T05:17:42.706Z,1027.99
2019-05-14T05:18:29.618Z,1027.99
2019-05-14T05:19:29.059Z,1027.95
2019-05-14T05:20:29.128Z,1027.98
2019-05-14T05:21:28.293Z,1028.02
2019-05-14T05:22:28.618Z,1028.03
2019-05-14T05:23:28.280Z,1028.04
2019-05-14T05:24:28.778Z,1028.01
2019-05-14T05:25:29.083Z,1028.01
2019-05-14T05:26:28.601Z,1028.02
2019-05-14T05:27:28.690Z,1028.04
2019-05-14T05:28:28.835Z,1027.98
2019-05-14T05:29:28.614Z,1027.95
2019-05-14T05:30:29.456Z,1027.96
2019-05-14T05:31:28.390Z,1027.94
2019-05-14T05:32:28.552Z,1027.93
2019-05-14T05:33:29.131Z,1027.92
2019-05-14T05:34:28.275Z,1027.87
2019-05-14T05:35:29.013Z,1027.86
2019-05-14T05:36:28.859Z,1027.88
2019-05-14T05:37:26.543Z,1027.88
2019-05-14T05:38:28.978Z,1027.89
2019-05-14T05:39:28.210Z,1027.90
2019-05-14T05:40:28.662Z,1027.83
2019-05-14T05:41:28.217Z,1027.91
2019-05-14T05:42:29.265Z,1027.89
2019-05-14T05:43:28.404Z,1027.89
2019-05-14T05:44:28.547Z,1027.90
2019-05-14T05:45:29.037Z,1027.90
2019-05-14T05:46:28.572Z,1027.94
2019-05-14T05:47:28.550Z,1027.97
2019-05-14T05:48:28.370Z,1027.93
2019-05-14T05:49:26.214Z,1027.86
2019-05-14T05:50:28.552Z,1027.90
2019-05-14T05:51:28.698Z,1027.86
2019-05-14T05:52:28.206Z,1027.86
2019-05-14T05:53:28.495Z,1027.85
2019-05-14T05:54:26.031Z,1027.84
2019-05-14T05:55:28.633Z,1027.93
2019-05-14T05:56:25.959Z,1027.79
2019-05-14T05:57:28.305Z,1027.80
2019-05-14T05:58:29.608Z,1027.79
2019-05-14T05:59:25.901Z,1027.85
2019-05-14T06:00:25.855Z,1027.76
2019-05-14T06:01:41.204Z,1027.75
2019-05-14T06:02:25.769Z,1027.71
2019-05-14T06:03:29.627Z,1027.71
2019-05-14T06:04:25.702Z,1027.72
2019-05-14T06:05:25.718Z,1027.71
2019-05-14T06:06:25.642Z,1027.67
2019-05-14T06:07:25.781Z,1027.72
2019-05-14T06:08:28.050Z,1027.72
2019-05-14T06:09:25.661Z,1027.72
2019-05-14T06:10:25.508Z,1027.74
2019-05-14T06:11:25.643Z,1027.75
2019-05-14T06:12:25.899Z,1027.73
2019-05-14T06:13:25.569Z,1027.76
2019-05-14T06:14:25.413Z,1027.73
2019-05-14T06:15:25.479Z,1027.79
2019-05-14T06:16:25.333Z,1027.73
2019-05-14T06:17:25.412Z,1027.79
2019-05-14T06:18:25.273Z,1027.72
2019-05-14T06:19:25.279Z,1027.75
2019-05-14T06:20:25.217Z,1027.73
2019-05-14T06:21:25.350Z,1027.72
2019-05-14T06:22:25.150Z,1027.74
2019-05-14T06:23:25.211Z,1027.75
2019-05-14T06:24:25.106Z,1027.71
2019-05-14T06:25:25.150Z,1027.68
2019-05-14T06:26:25.035Z,1027.59
2019-05-14T06:27:25.032Z,1027.60
2019-05-14T06:28:28.387Z,1027.56
2019-05-14T06:29:25.024Z,1027.58
2019-05-14T06:30:24.916Z,1027.59
2019-05-14T06:31:25.966Z,1027.55
2019-05-14T06:32:24.872Z,1027.58
2019-05-14T06:33:24.875Z,1027.55
2019-05-14T06:34:24.875Z,1027.55
2019-05-14T06:35:24.888Z,1027.58
2019-05-14T06:36:24.724Z,1027.57
2019-05-14T06:37:24.797Z,1027.56
2019-05-14T06:38:24.683Z,1027.56
2019-05-14T06:39:24.658Z,1027.56
2019-05-14T06:40:24.722Z,1027.57
2019-05-14T06:41:24.597Z,1027.56
2019-05-14T06:42:24.620Z,1027.58
2019-05-14T06:43:24.508Z,1027.54
2019-05-14T06:44:24.519Z,1027.59
2019-05-14T06:45:24.441Z,1027.58
2019-05-14T06:46:24.419Z,1027.57
2019-05-14T06:47:24.452Z,1027.53
2019-05-14T06:48:30.824Z,1027.59
2019-05-14T06:49:24.329Z,1027.62
2019-05-14T06:50:24.296Z,1027.55
2019-05-14T06:51:24.265Z,1027.59
2019-05-14T06:52:24.251Z,1027.57
2019-05-14T06:53:24.220Z,1027.53
2019-05-14T06:54:24.183Z,1027.54
2019-05-14T06:55:24.169Z,1027.54
2019-05-14T06:56:24.135Z,1027.51
2019-05-14T06:57:24.106Z,1027.55
2019-05-14T06:58:24.073Z,1027.58
2019-05-14T06:59:24.045Z,1027.58
2019-05-14T07:00:24.005Z,1027.60
2019-05-14T07:01:24.610Z,1027.60
2019-05-14T07:02:23.936Z,1027.61
2019-05-14T07:03:23.918Z,1027.61
2019-05-14T07:04:23.910Z,1027.58
2019-05-14T07:05:23.833Z,1027.54
2019-05-14T07:06:23.831Z,1027.55
2019-05-14T07:07:23.781Z,1027.58
2019-05-14T07:08:23.749Z,1027.54
2019-05-14T07:09:23.747Z,1027.58
2019-05-14T07:10:23.696Z,1027.52
2019-05-14T07:11:23.682Z,1027.61
2019-05-14T07:12:23.677Z,1027.60
2019-05-14T07:13:23.646Z,1027.59
2019-05-14T07:14:23.572Z,1027.66
2019-05-14T07:15:23.566Z,1027.64
2019-05-14T07:16:23.515Z,1027.67
2019-05-14T07:17:23.493Z,1027.67
2019-05-14T07:18:23.441Z,1027.67
2019-05-14T07:19:23.438Z,1027.69
2019-05-14T07:20:23.416Z,1027.72
2019-05-14T07:21:23.393Z,1027.71
2019-05-14T07:22:23.346Z,1027.74
2019-05-14T07:23:23.320Z,1027.74
2019-05-14T07:24:23.265Z,1027.69
2019-05-14T07:25:23.261Z,1027.69
2019-05-14T07:26:23.262Z,1027.68
2019-05-14T07:27:23.247Z,1027.71
2019-05-14T07:28:23.159Z,1027.70
2019-05-14T07:29:23.137Z,1027.65
2019-05-14T07:30:23.121Z,1027.61
2019-05-14T07:31:23.115Z,1027.61
2019-05-14T07:32:23.050Z,1027.61
2019-05-14T07:33:25.353Z,1027.62
2019-05-14T07:34:22.986Z,1027.63
2019-05-14T07:35:22.947Z,1027.63
2019-05-14T07:36:22.899Z,1027.55
2019-05-14T07:37:22.902Z,1027.64
2019-05-14T07:38:22.846Z,1027.64
2019-05-14T07:39:22.815Z,1027.66
2019-05-14T07:40:22.791Z,1027.67
2019-05-14T07:41:22.767Z,1027.68
2019-05-14T07:42:22.724Z,1027.74
2019-05-14T07:43:22.712Z,1027.71
2019-05-14T07:44:22.703Z,1027.70
2019-05-14T07:45:22.646Z,1027.67
2019-05-14T07:46:22.612Z,1027.66
2019-05-14T07:47:22.617Z,1027.63
2019-05-14T07:48:22.550Z,1027.63
2019-05-14T07:49:22.539Z,1027.62
2019-05-14T07:50:22.499Z,1027.64
2019-05-14T07:51:22.464Z,1027.61
2019-05-14T07:52:22.448Z,1027.58
2019-05-14T07:53:35.301Z,1027.60
2019-05-14T07:54:22.392Z,1027.60
2019-05-14T07:55:22.325Z,1027.61
2019-05-14T07:56:22.295Z,1027.65
2019-05-14T07:57:22.280Z,1027.63
2019-05-14T07:58:22.252Z,1027.67
2019-05-14T07:59:22.222Z,1027.70
2019-05-14T08:00:22.215Z,1027.73
2019-05-14T08:01:22.171Z,1027.66
2019-05-14T08:02:22.137Z,1027.60
2019-05-14T08:03:22.113Z,1027.67
2019-05-14T08:04:22.214Z,1027.67
2019-05-14T08:05:22.055Z,1027.67
2019-05-14T08:06:22.011Z,1027.64
2019-05-14T08:07:21.982Z,1027.64
2019-05-14T08:08:22.015Z,1027.62
2019-05-14T08:09:21.917Z,1027.63
2019-05-14T08:10:21.900Z,1027.64
2019-05-14T08:11:22.541Z,1027.60
2019-05-14T08:12:21.813Z,1027.61
2019-05-14T08:13:21.785Z,1027.61
2019-05-14T08:14:21.783Z,1027.63
2019-05-14T08:15:22.568Z,1027.62
2019-05-14T08:16:21.803Z,1027.60
2019-05-14T08:17:21.752Z,1027.58
2019-05-14T08:18:21.688Z,1027.60
2019-05-14T08:19:26.835Z,1027.62
2019-05-14T08:20:21.582Z,1027.60
2019-05-14T08:21:21.534Z,1027.57
2019-05-14T08:22:21.538Z,1027.64
2019-05-14T08:23:21.494Z,1027.61
2019-05-14T08:24:26.651Z,1027.57
2019-05-14T08:25:21.419Z,1027.55
2019-05-14T08:26:21.401Z,1027.57
2019-05-14T08:27:21.368Z,1027.61
2019-05-14T08:28:21.352Z,1027.55
2019-05-14T08:29:21.291Z,1027.52
2019-05-14T08:30:21.278Z,1027.51
2019-05-14T08:31:21.236Z,1027.52
2019-05-14T08:32:21.224Z,1027.49
2019-05-14T08:33:21.174Z,1027.51
2019-05-14T08:34:21.142Z,1027.49
2019-05-14T08:35:21.146Z,1027.51
2019-05-14T08:36:21.078Z,1027.48
2019-05-14T08:37:21.067Z,1027.48
2019-05-14T08:38:21.042Z,1027.42
2019-05-14T08:39:21.008Z,1027.39
2019-05-14T08:40:21.101Z,1027.43
2019-05-14T08:41:20.943Z,1027.36
2019-05-14T08:42:20.900Z,1027.33
2019-05-14T08:43:20.882Z,1027.30
2019-05-14T08:44:20.849Z,1027.31
2019-05-14T08:45:20.840Z,1027.31
2019-05-14T08:46:20.779Z,1027.26
2019-05-14T08:47:20.757Z,1027.29
2019-05-14T08:48:20.729Z,1027.25
2019-05-14T08:49:20.690Z,1027.23
2019-05-14T08:50:20.650Z,1027.18
2019-05-14T08:51:20.652Z,1027.10
2019-05-14T08:52:20.646Z,1027.11
2019-05-14T08:53:20.577Z,1027.09
2019-05-14T08:54:20.589Z,1027.08
2019-05-14T08:55:20.610Z,1027.07
2019-05-14T08:56:20.486Z,1027.08
2019-05-14T08:57:20.533Z,1027.06
2019-05-14T08:58:22.581Z,1027.07
2019-05-14T08:59:20.436Z,1027.03
2019-05-14T09:00:20.401Z,1027.02
2019-05-14T09:01:20.349Z,1027.01
2019-05-14T09:02:20.327Z,1026.97
2019-05-14T09:03:20.274Z,1026.98
2019-05-14T09:05:20.218Z,1026.97
2019-05-14T09:06:20.243Z,1026.99
2019-05-14T09:07:20.137Z,1026.96
2019-05-14T09:08:21.048Z,1026.96
2019-05-14T09:09:22.193Z,1027.00
2019-05-14T09:10:20.072Z,1026.97
2019-05-14T09:11:24.094Z,1026.98
2019-05-14T09:12:19.998Z,1026.94
2019-05-14T09:13:19.967Z,1026.99
2019-05-14T09:14:19.952Z,1027.01
2019-05-14T09:15:19.893Z,1027.01
2019-05-14T09:16:41.921Z,1027.00
2019-05-14T09:17:19.843Z,1027.02
2019-05-14T09:18:19.816Z,1027.03
2019-05-14T09:19:21.818Z,1027.02
2019-05-14T09:20:19.770Z,1026.92
2019-05-14T09:21:20.535Z,1026.90
2019-05-14T09:22:19.786Z,1026.90
2019-05-14T09:23:19.759Z,1026.97
2019-05-14T09:24:19.685Z,1026.88
2019-05-14T09:25:20.726Z,1026.92
2019-05-14T09:26:19.580Z,1026.91
2019-05-14T09:27:19.588Z,1026.92
2019-05-14T09:28:28.658Z,1026.96
2019-05-14T09:29:25.818Z,1026.90
2019-05-14T09:30:19.483Z,1026.91
2019-05-14T09:31:20.479Z,1026.89
2019-05-14T09:32:19.454Z,1026.88
2019-05-14T09:33:23.971Z,1026.90
2019-05-14T09:34:19.703Z,1026.88
2019-05-14T09:35:19.323Z,1026.87
2019-05-14T09:36:23.385Z,1026.90
2019-05-14T09:37:19.546Z,1026.88
2019-05-14T09:38:19.214Z,1026.87
2019-05-14T09:39:19.206Z,1026.86
2019-05-14T09:40:19.984Z,1026.83
2019-05-14T09:41:19.125Z,1026.84
2019-05-14T09:42:19.708Z,1026.84
2019-05-14T09:43:19.078Z,1026.87
2019-05-14T09:44:19.055Z,1026.90
2019-05-14T09:45:19.049Z,1026.84
2019-05-14T09:46:18.969Z,1026.88
2019-05-14T09:47:19.150Z,1026.87
2019-05-14T09:48:19.135Z,1026.88
2019-05-14T09:49:18.921Z,1026.88
2019-05-14T09:50:23.212Z,1026.88
2019-05-14T09:51:18.833Z,1026.88
2019-05-14T09:52:19.563Z,1026.92
2019-05-14T09:53:18.786Z,1026.90
2019-05-14T09:54:19.287Z,1026.95
2019-05-14T09:55:18.708Z,1026.89
2019-05-14T09:56:18.990Z,1026.86
2019-05-14T09:57:19.040Z,1026.81
2019-05-14T09:58:19.860Z,1026.84
2019-05-14T09:59:18.698Z,1026.85
2019-05-14T10:00:18.803Z,1026.83
2019-05-14T10:01:19.349Z,1026.81
2019-05-14T10:02:18.516Z,1026.85
2019-05-14T10:03:19.280Z,1026.80
2019-05-14T10:04:18.421Z,1026.77
2019-05-14T10:05:19.429Z,1026.74
2019-05-14T10:06:25.192Z,1026.72
2019-05-14T10:07:18.374Z,1026.68
2019-05-14T10:08:19.311Z,1026.65
2019-05-14T10:09:20.306Z,1026.65
2019-05-14T10:10:19.562Z,1026.58
2019-05-14T10:11:18.234Z,1026.61
2019-05-14T10:12:18.206Z,1026.59
2019-05-14T10:13:32.684Z,1026.60
2019-05-14T10:14:18.144Z,1026.63
2019-05-14T10:15:18.120Z,1026.64
2019-05-14T10:16:49.048Z,1026.67
2019-05-14T10:17:19.361Z,1026.65
2019-05-14T10:18:18.984Z,1026.68
2019-05-14T10:19:19.262Z,1026.66
2019-05-14T10:20:35.682Z,1026.66
2019-05-14T10:21:19.037Z,1026.62
2019-05-14T10:22:19.808Z,1026.55
2019-05-14T10:23:18.898Z,1026.55
2019-05-14T10:24:18.556Z,1026.56
2019-05-14T10:25:18.197Z,1026.55
2019-05-14T10:26:18.630Z,1026.48
2019-05-14T10:27:18.993Z,1026.44
2019-05-14T10:28:19.235Z,1026.46
2019-05-14T10:29:19.114Z,1026.38
2019-05-14T10:30:18.136Z,1026.36
2019-05-14T10:31:18.374Z,1026.32
2019-05-14T10:32:18.697Z,1026.36
2019-05-14T10:33:18.171Z,1026.37
2019-05-14T10:34:24.341Z,1026.30
2019-05-14T10:35:19.205Z,1026.23
2019-05-14T10:36:19.217Z,1026.30
2019-05-14T10:37:19.148Z,1026.26
2019-05-14T10:38:18.950Z,1026.30
2019-05-14T10:39:19.158Z,1026.30
2019-05-14T10:40:18.386Z,1026.29
2019-05-14T10:41:18.438Z,1026.28
2019-05-14T10:42:40.361Z,1026.29
2019-05-14T10:43:19.476Z,1026.22
2019-05-14T10:44:18.736Z,1026.21
2019-05-14T10:45:18.680Z,1026.22
2019-05-14T10:46:19.331Z,1026.17
2019-05-14T10:47:18.715Z,1026.20
2019-05-14T10:48:18.637Z,1026.17
2019-05-14T10:49:23.569Z,1026.14
2019-05-14T10:50:18.268Z,1026.14
2019-05-14T10:51:18.033Z,1026.14
2019-05-14T10:52:19.776Z,1026.22
2019-05-14T10:53:16.995Z,1026.22
2019-05-14T10:54:25.007Z,1026.18
2019-05-14T14:17:07.257Z,1023.98
2019-05-14T14:17:49.602Z,1023.96
2019-05-14T14:18:50.337Z,1023.95
2019-05-14T14:19:48.789Z,1023.98
2019-05-14T14:20:50.804Z,1023.91
2019-05-14T14:21:49.424Z,1023.92
2019-05-14T14:23:21.550Z,1023.94
2019-05-14T14:23:49.413Z,1023.91
2019-05-14T14:24:49.749Z,1023.94
2019-05-14T14:25:54.917Z,1023.84
2019-05-14T14:27:19.379Z,1023.84
2019-05-14T14:27:48.810Z,1023.75
2019-05-14T14:28:49.421Z,1023.76
2019-05-14T14:47:21.081Z,1023.48
2019-05-14T14:47:55.977Z,1023.43
2019-05-14T14:48:58.934Z,1023.45
2019-05-14T14:50:00.152Z,1023.46
2019-05-14T14:50:58.671Z,1023.43
2019-05-14T14:51:58.750Z,1023.46
2019-05-14T15:34:19.085Z,1023.09
2019-05-14T15:35:18.905Z,1023.09
2019-05-14T15:36:19.418Z,1023.11
2019-05-14T15:37:18.890Z,1023.10
2019-05-14T15:38:16.738Z,1023.11
2019-05-14T15:39:22.006Z,1023.10
2019-05-14T15:40:22.076Z,1023.06
2019-05-14T15:41:19.300Z,1023.14
2019-05-14T15:42:19.097Z,1023.21
2019-05-14T15:43:18.796Z,1023.15
2019-05-14T15:44:19.392Z,1023.12
2019-05-14T15:45:18.041Z,1023.07
2019-05-14T15:46:18.509Z,1023.05
2019-05-14T15:47:18.816Z,1023.10
2019-05-14T15:48:19.666Z,1023.04
2019-05-14T15:49:18.956Z,1023.06
2019-05-14T15:50:16.467Z,1023.05
2019-05-14T15:51:18.829Z,1022.99
2019-05-14T15:52:18.986Z,1022.95
2019-05-14T15:53:16.287Z,1022.90
2019-05-14T15:54:36.310Z,1022.85
2019-05-14T15:55:18.159Z,1022.86
2019-05-14T15:56:18.576Z,1022.87
2019-05-14T15:57:18.980Z,1022.83
2019-05-14T15:58:20.864Z,1022.88
2019-05-14T15:59:16.212Z,1022.86
2019-05-14T16:00:16.098Z,1022.95
2019-05-14T16:01:19.088Z,1022.90
2019-05-14T16:02:16.060Z,1022.92
2019-05-14T16:03:18.646Z,1022.87
2019-05-14T16:04:15.989Z,1022.87
2019-05-14T16:05:18.766Z,1022.91
2019-05-14T16:06:15.936Z,1022.89
2019-05-14T16:07:18.463Z,1022.87
2019-05-14T16:08:18.770Z,1022.83
2019-05-14T16:09:19.189Z,1022.81
2019-05-14T16:10:15.870Z,1022.74
2019-05-14T16:11:18.376Z,1022.78
2019-05-14T16:12:15.772Z,1022.77
2019-05-14T16:13:15.742Z,1022.78
2019-05-14T16:14:15.820Z,1022.75
2019-05-14T16:15:15.817Z,1022.81
2019-05-14T16:16:15.673Z,1022.79
2019-05-14T16:17:15.801Z,1022.75
2019-05-14T16:18:18.961Z,1022.68
2019-05-14T16:20:18.594Z,1022.66
2019-05-14T16:21:18.026Z,1022.74
2019-05-14T16:22:19.139Z,1022.73
2019-05-14T16:23:15.486Z,1022.76
2019-05-14T16:24:32.345Z,1022.76
2019-05-14T16:25:15.410Z,1022.77
2019-05-14T16:26:39.330Z,1022.79
2019-05-14T16:27:15.383Z,1022.74